createdAt,value
2018-11-22T00:00:11.737Z,0.00
2018-11-22T00:01:12.142Z,0.00
2018-11-22T00:02:12.415Z,0.00
2018-11-22T00:03:12.765Z,0.00
2018-11-22T00:04:13.029Z,0.00
2018-11-22T00:05:13.598Z,0.00
2018-11-22T00:06:13.571Z,0.00
2018-11-22T00:07:13.859Z,0.00
2018-11-22T00:08:14.113Z,0.00
2018-11-22T00:09:14.387Z,0.00
2018-11-22T00:10:14.951Z,0.00
2018-11-22T00:11:14.872Z,0.00
2018-11-22T00:12:15.139Z,0.00
2018-11-22T00:13:15.536Z,0.00
2018-11-22T00:14:15.819Z,0.00
2018-11-22T00:15:16.433Z,0.00
2018-11-22T00:16:16.396Z,0.00
2018-11-22T00:17:16.344Z,0.00
2018-11-22T00:18:16.611Z,0.00
2018-11-22T00:19:16.881Z,0.00
2018-11-22T00:20:17.527Z,0.00
2018-11-22T00:21:17.289Z,0.00
2018-11-22T00:22:17.582Z,0.00
2018-11-22T00:23:17.902Z,0.00
2018-11-22T00:24:18.430Z,0.00
2018-11-22T00:25:18.486Z,0.00
2018-11-22T00:26:18.887Z,0.00
2018-11-22T00:27:19.281Z,0.00
2018-11-22T00:28:19.172Z,0.00
2018-11-22T00:29:19.300Z,0.00
2018-11-22T00:30:19.456Z,0.00
2018-11-22T00:31:19.503Z,0.00
2018-11-22T00:32:19.631Z,0.00
2018-11-22T00:33:20.014Z,0.00
2018-11-22T00:34:20.224Z,0.00
2018-11-22T00:35:20.389Z,0.00
2018-11-22T00:36:20.382Z,0.00
2018-11-22T00:37:20.561Z,0.00
2018-11-22T00:38:20.680Z,0.00
2018-11-22T00:39:20.831Z,0.00
2018-11-22T00:40:20.979Z,0.00
2018-11-22T00:41:21.066Z,0.00
2018-11-22T00:42:21.119Z,0.00
2018-11-22T00:43:21.511Z,0.00
2018-11-22T00:44:21.680Z,0.00
2018-11-22T00:45:21.756Z,0.00
2018-11-22T00:46:21.983Z,0.00
2018-11-22T00:47:22.094Z,0.00
2018-11-22T00:49:22.207Z,0.00
2018-11-22T00:50:22.218Z,0.00
2018-11-22T00:51:22.356Z,0.00
2018-11-22T00:52:22.427Z,0.00
2018-11-22T00:53:22.492Z,0.00
2018-11-22T00:54:22.561Z,0.00
2018-11-22T00:55:22.630Z,0.00
2018-11-22T00:56:23.000Z,0.00
2018-11-22T00:58:23.079Z,0.00
2018-11-22T00:59:23.158Z,0.00
2018-11-22T01:00:23.290Z,0.00
2018-11-22T01:01:23.254Z,0.00
2018-11-22T01:02:23.320Z,0.00
2018-11-22T01:03:23.404Z,0.00
2018-11-22T01:04:23.465Z,0.00
2018-11-22T01:05:23.538Z,0.00
2018-11-22T01:06:23.859Z,0.00
2018-11-22T01:07:24.589Z,0.00
2018-11-22T01:08:24.716Z,0.00
2018-11-22T01:09:24.500Z,0.00
2018-11-22T01:10:24.782Z,0.00
2018-11-22T01:11:25.218Z,0.00
2018-11-22T01:12:25.487Z,0.00
2018-11-22T01:13:25.832Z,0.00
2018-11-22T01:14:26.145Z,0.00
2018-11-22T01:15:26.201Z,0.00
2018-11-22T01:16:26.470Z,0.00
2018-11-22T01:17:26.738Z,0.00
2018-11-22T01:18:27.000Z,0.00
2018-11-22T01:19:27.401Z,0.00
2018-11-22T01:20:27.635Z,0.00
2018-11-22T01:21:27.900Z,0.00
2018-11-22T01:22:28.190Z,0.00
2018-11-22T01:23:28.459Z,0.00
2018-11-22T01:24:28.718Z,0.00
2018-11-22T01:25:28.995Z,0.00
2018-11-22T01:26:29.281Z,0.00
2018-11-22T01:27:29.607Z,0.00
2018-11-22T01:28:29.867Z,0.00
2018-11-22T01:29:30.134Z,0.00
2018-11-22T01:30:30.444Z,0.00
2018-11-22T01:31:30.918Z,0.00
2018-11-22T01:32:31.197Z,0.00
2018-11-22T01:33:31.483Z,0.00
2018-11-22T01:34:31.777Z,0.00
2018-11-22T01:35:32.054Z,0.00
2018-11-22T01:36:32.338Z,0.00
2018-11-22T01:37:32.677Z,0.00
2018-11-22T01:38:33.181Z,0.00
2018-11-22T01:39:33.778Z,0.00
2018-11-22T01:40:33.870Z,0.00
2018-11-22T01:41:33.982Z,0.00
2018-11-22T01:42:34.101Z,0.00
2018-11-22T01:43:34.288Z,0.00
2018-11-22T01:44:34.404Z,0.00
2018-11-22T01:45:34.512Z,0.00
2018-11-22T01:46:34.638Z,0.00
2018-11-22T01:47:34.766Z,0.00
2018-11-22T01:48:35.126Z,0.00
2018-11-22T01:49:35.252Z,0.00
2018-11-22T01:50:35.389Z,0.00
2018-11-22T01:51:35.544Z,0.00
2018-11-22T01:52:35.693Z,0.00
2018-11-22T01:53:36.039Z,0.00
2018-11-22T01:54:36.160Z,0.00
2018-11-22T01:55:36.327Z,0.00
2018-11-22T01:56:36.479Z,0.00
2018-11-22T01:57:36.547Z,0.00
2018-11-22T01:58:36.874Z,0.00
2018-11-22T01:59:36.984Z,0.00
2018-11-22T02:00:37.089Z,0.00
2018-11-22T02:01:37.166Z,0.00
2018-11-22T02:02:37.230Z,0.00
2018-11-22T02:03:37.550Z,0.00
2018-11-22T02:04:37.623Z,0.00
2018-11-22T02:05:37.686Z,0.00
2018-11-22T02:06:37.747Z,0.00
2018-11-22T02:07:37.819Z,0.00
2018-11-22T02:08:38.036Z,0.00
2018-11-22T02:09:38.095Z,0.00
2018-11-22T02:10:38.167Z,0.00
2018-11-22T02:11:38.244Z,0.00
2018-11-22T02:12:38.569Z,0.00
2018-11-22T02:13:38.690Z,0.00
2018-11-22T02:14:38.757Z,0.00
2018-11-22T02:15:38.788Z,0.00
2018-11-22T02:16:38.828Z,0.00
2018-11-22T02:17:38.838Z,0.00
2018-11-22T02:20:39.017Z,0.00
2018-11-22T02:21:39.091Z,0.00
2018-11-22T02:22:39.116Z,0.00
2018-11-22T02:23:39.236Z,0.00
2018-11-22T02:24:39.497Z,0.00
2018-11-22T02:25:39.760Z,0.00
2018-11-22T02:26:40.022Z,0.00
2018-11-22T02:27:40.275Z,0.00
2018-11-22T02:28:40.666Z,0.00
2018-11-22T02:29:40.942Z,0.00
2018-11-22T02:30:41.233Z,0.00
2018-11-22T02:31:41.533Z,0.00
2018-11-22T02:32:41.837Z,0.00
2018-11-22T02:33:42.105Z,0.00
2018-11-22T02:34:42.412Z,0.00
2018-11-22T02:35:42.707Z,0.00
2018-11-22T02:36:43.037Z,0.00
2018-11-22T02:37:43.340Z,0.00
2018-11-22T02:38:43.683Z,0.00
2018-11-22T02:39:44.326Z,0.00
2018-11-22T02:40:44.097Z,0.00
2018-11-22T02:41:44.381Z,0.00
2018-11-22T02:42:44.642Z,0.00
2018-11-22T02:43:44.684Z,0.00
2018-11-22T02:44:45.032Z,0.00
2018-11-22T02:45:45.300Z,0.00
2018-11-22T02:46:45.578Z,0.00
2018-11-22T02:47:45.847Z,0.00
2018-11-22T02:48:46.115Z,0.00
2018-11-22T02:49:46.460Z,0.00
2018-11-22T02:50:46.730Z,0.00
2018-11-22T02:51:46.990Z,0.00
2018-11-22T02:52:47.258Z,0.00
2018-11-22T02:53:47.425Z,0.00
2018-11-22T02:54:47.931Z,0.00
2018-11-22T02:55:48.564Z,0.00
2018-11-22T02:56:48.659Z,0.00
2018-11-22T02:57:48.780Z,0.00
2018-11-22T02:58:48.856Z,0.00
2018-11-22T02:59:48.997Z,0.00
2018-11-22T03:00:49.114Z,0.00
2018-11-22T03:01:49.399Z,0.00
2018-11-22T03:02:49.548Z,0.00
2018-11-22T03:03:50.046Z,0.00
2018-11-22T03:04:50.176Z,0.00
2018-11-22T03:05:50.291Z,0.00
2018-11-22T03:06:50.467Z,0.00
2018-11-22T03:07:50.638Z,0.00
2018-11-22T03:08:50.812Z,0.00
2018-11-22T03:09:51.004Z,0.00
2018-11-22T03:10:51.099Z,0.00
2018-11-22T03:11:51.224Z,0.00
2018-11-22T03:12:51.287Z,0.00
2018-11-22T03:13:51.425Z,0.00
2018-11-22T03:14:51.495Z,0.00
2018-11-22T03:15:51.545Z,0.00
2018-11-22T03:16:51.646Z,0.00
2018-11-22T03:17:51.729Z,0.00
2018-11-22T03:18:51.773Z,0.00
2018-11-22T03:19:51.901Z,0.00
2018-11-22T03:20:52.017Z,0.00
2018-11-22T03:21:52.243Z,0.00
2018-11-22T03:22:52.312Z,0.00
2018-11-22T03:23:52.408Z,0.00
2018-11-22T03:24:52.469Z,0.00
2018-11-22T03:25:52.597Z,0.00
2018-11-22T03:26:52.661Z,0.00
2018-11-22T03:27:52.727Z,0.00
2018-11-22T03:28:53.081Z,0.00
2018-11-22T03:29:53.173Z,0.00
2018-11-22T03:30:53.249Z,0.00
2018-11-22T03:31:53.318Z,0.00
2018-11-22T03:32:53.429Z,0.00
2018-11-22T03:33:53.520Z,0.00
2018-11-22T03:34:53.596Z,0.00
2018-11-22T03:35:53.693Z,0.00
2018-11-22T03:36:53.750Z,0.00
2018-11-22T03:37:53.830Z,0.00
2018-11-22T03:38:53.778Z,0.00
2018-11-22T03:39:54.243Z,0.00
2018-11-22T03:40:54.601Z,0.00
2018-11-22T03:41:54.900Z,0.00
2018-11-22T03:42:55.167Z,0.00
2018-11-22T03:43:55.469Z,0.00
2018-11-22T03:44:55.743Z,0.00
2018-11-22T03:45:56.002Z,0.00
2018-11-22T03:46:56.273Z,0.00
2018-11-22T03:47:56.588Z,0.00
2018-11-22T03:48:56.863Z,0.00
2018-11-22T03:49:57.134Z,0.00
2018-11-22T03:50:57.397Z,0.00
2018-11-22T03:51:57.675Z,0.00
2018-11-22T03:52:57.923Z,0.00
2018-11-22T03:53:58.195Z,0.00
2018-11-22T03:54:58.465Z,0.00
2018-11-22T03:55:58.737Z,0.00
2018-11-22T03:56:59.112Z,0.00
2018-11-22T03:57:59.540Z,0.00
2018-11-22T03:59:00.059Z,0.00
2018-11-22T03:59:59.847Z,0.00
2018-11-22T04:01:00.182Z,0.00
2018-11-22T04:02:00.447Z,0.00
2018-11-22T04:03:00.948Z,0.00
2018-11-22T04:04:01.003Z,0.00
2018-11-22T04:05:01.095Z,0.00
2018-11-22T04:06:00.952Z,0.00
2018-11-22T04:07:01.247Z,0.00
2018-11-22T04:09:01.583Z,0.00
2018-11-22T04:10:01.972Z,0.00
2018-11-22T04:11:02.285Z,0.00
2018-11-22T04:12:02.320Z,0.00
2018-11-22T04:13:02.544Z,0.00
2018-11-22T04:14:02.592Z,0.00
2018-11-22T04:15:02.649Z,0.00
2018-11-22T04:16:02.852Z,0.00
2018-11-22T04:17:02.609Z,0.00
2018-11-22T04:18:03.156Z,0.00
2018-11-22T04:19:03.713Z,0.00
2018-11-22T04:20:03.822Z,0.00
2018-11-22T04:21:03.959Z,0.00
2018-11-22T04:22:04.096Z,0.00
2018-11-22T04:23:04.224Z,0.00
2018-11-22T04:24:04.390Z,0.00
2018-11-22T04:25:04.453Z,0.00
2018-11-22T04:26:04.611Z,0.00
2018-11-22T04:27:04.739Z,0.00
2018-11-22T04:28:04.873Z,0.00
2018-11-22T04:29:04.852Z,0.00
2018-11-22T04:30:05.148Z,0.00
2018-11-22T04:31:05.537Z,0.00
2018-11-22T04:32:05.680Z,0.00
2018-11-22T04:33:05.795Z,0.00
2018-11-22T04:34:05.875Z,0.00
2018-11-22T04:35:05.971Z,0.00
2018-11-22T04:36:06.240Z,0.00
2018-11-22T04:37:06.278Z,0.00
2018-11-22T04:38:06.358Z,0.00
2018-11-22T04:39:06.479Z,0.00
2018-11-22T04:40:06.705Z,0.00
2018-11-22T04:41:06.836Z,0.00
2018-11-22T04:42:06.884Z,0.00
2018-11-22T04:43:07.005Z,0.00
2018-11-22T04:44:07.127Z,0.00
2018-11-22T04:45:07.262Z,0.00
2018-11-22T04:46:07.468Z,0.00
2018-11-22T04:47:07.528Z,0.00
2018-11-22T04:48:07.378Z,0.00
2018-11-22T04:49:07.951Z,0.00
2018-11-22T04:50:08.027Z,0.00
2018-11-22T04:51:08.217Z,0.00
2018-11-22T04:52:08.786Z,0.00
2018-11-22T04:53:08.876Z,0.00
2018-11-22T04:54:08.940Z,0.00
2018-11-22T04:55:08.923Z,0.00
2018-11-22T04:56:09.356Z,0.00
2018-11-22T04:57:09.347Z,0.00
2018-11-22T04:58:09.631Z,0.00
2018-11-22T04:59:09.891Z,0.00
2018-11-22T05:00:10.159Z,0.00
2018-11-22T05:01:10.562Z,0.00
2018-11-22T05:02:10.839Z,0.00
2018-11-22T05:03:11.108Z,0.00
2018-11-22T05:04:11.666Z,0.00
2018-11-22T05:05:12.128Z,0.00
2018-11-22T05:06:12.346Z,0.00
2018-11-22T05:07:12.617Z,0.00
2018-11-22T05:08:12.881Z,0.00
2018-11-22T05:09:13.167Z,0.00
2018-11-22T05:10:13.452Z,0.00
2018-11-22T05:11:13.464Z,0.00
2018-11-22T05:12:13.799Z,0.00
2018-11-22T05:13:14.190Z,0.00
2018-11-22T05:14:14.453Z,0.00
2018-11-22T05:15:15.093Z,0.00
2018-11-22T05:16:15.243Z,0.00
2018-11-22T05:17:15.518Z,0.00
2018-11-22T05:18:15.785Z,0.00
2018-11-22T05:19:16.131Z,0.00
2018-11-22T05:20:16.727Z,0.00
2018-11-22T05:21:16.724Z,0.00
2018-11-22T05:22:17.009Z,0.00
2018-11-22T05:23:17.310Z,0.00
2018-11-22T05:24:17.586Z,0.00
2018-11-22T05:25:17.870Z,0.00
2018-11-22T05:26:18.474Z,0.00
2018-11-22T05:27:18.525Z,0.00
2018-11-22T05:28:18.573Z,0.00
2018-11-22T05:29:18.657Z,0.00
2018-11-22T05:30:18.763Z,0.00
2018-11-22T05:31:18.992Z,0.00
2018-11-22T05:32:19.100Z,0.00
2018-11-22T05:33:19.172Z,0.00
2018-11-22T05:34:19.304Z,0.00
2018-11-22T05:35:19.446Z,0.00
2018-11-22T05:36:19.765Z,0.00
2018-11-22T05:37:19.883Z,0.00
2018-11-22T05:38:20.010Z,0.00
2018-11-22T05:39:20.175Z,0.00
2018-11-22T05:40:20.340Z,0.00
2018-11-22T05:41:20.794Z,0.00
2018-11-22T05:42:20.909Z,0.00
2018-11-22T05:43:21.019Z,0.00
2018-11-22T05:44:21.100Z,0.00
2018-11-22T05:45:21.199Z,0.00
2018-11-22T05:46:21.271Z,0.00
2018-11-22T05:47:21.345Z,0.00
2018-11-22T05:48:21.418Z,0.00
2018-11-22T05:49:21.475Z,0.00
2018-11-22T05:50:21.574Z,0.00
2018-11-22T05:51:21.408Z,0.00
2018-11-22T05:52:22.080Z,0.00
2018-11-22T05:53:22.193Z,0.00
2018-11-22T05:54:22.306Z,0.00
2018-11-22T05:55:22.413Z,0.00
2018-11-22T05:56:22.519Z,0.00
2018-11-22T05:57:22.581Z,0.00
2018-11-22T05:58:22.658Z,0.00
2018-11-22T05:59:22.863Z,0.00
2018-11-22T06:00:22.938Z,0.00
2018-11-22T06:01:23.035Z,0.00
2018-11-22T06:02:23.106Z,0.00
2018-11-22T06:03:23.183Z,0.00
2018-11-22T06:04:23.286Z,0.00
2018-11-22T06:05:23.395Z,0.00
2018-11-22T06:06:23.690Z,0.00
2018-11-22T06:07:23.819Z,0.00
2018-11-22T06:08:23.898Z,0.00
2018-11-22T06:09:23.944Z,0.00
2018-11-22T06:10:23.937Z,0.00
2018-11-22T06:11:24.026Z,1.00
2018-11-22T06:12:24.010Z,1.00
2018-11-22T06:13:24.290Z,1.00
2018-11-22T06:14:24.563Z,1.00
2018-11-22T06:15:24.829Z,1.00
2018-11-22T06:16:25.186Z,1.00
2018-11-22T06:17:25.555Z,2.00
2018-11-22T06:18:25.835Z,2.00
2018-11-22T06:19:26.134Z,2.00
2018-11-22T06:20:26.415Z,3.00
2018-11-22T06:21:26.461Z,3.00
2018-11-22T06:22:26.749Z,4.00
2018-11-22T06:23:26.758Z,5.00
2018-11-22T06:24:27.274Z,5.00
2018-11-22T06:25:27.761Z,6.00
2018-11-22T06:26:28.039Z,7.00
2018-11-22T06:27:28.341Z,8.00
2018-11-22T06:29:28.653Z,11.00
2018-11-22T06:30:28.921Z,12.00
2018-11-22T06:31:29.418Z,13.00
2018-11-22T06:32:29.820Z,15.00
2018-11-22T06:33:30.097Z,17.00
2018-11-22T06:34:30.380Z,21.00
2018-11-22T06:35:30.667Z,24.00
2018-11-22T06:36:30.985Z,28.00
2018-11-22T06:37:31.270Z,32.00
2018-11-22T06:38:31.590Z,38.00
2018-11-22T06:39:31.888Z,42.00
2018-11-22T06:40:32.212Z,48.00
2018-11-22T06:41:32.602Z,53.00
2018-11-22T06:42:33.105Z,59.00
2018-11-22T06:43:33.680Z,64.00
2018-11-22T06:44:33.796Z,70.00
2018-11-22T06:45:33.931Z,77.00
2018-11-22T06:46:34.136Z,82.00
2018-11-22T06:47:34.239Z,88.00
2018-11-22T06:48:34.370Z,94.00
2018-11-22T06:49:34.525Z,101.00
2018-11-22T06:50:34.693Z,111.00
2018-11-22T06:51:34.858Z,121.00
2018-11-22T06:52:34.970Z,132.00
2018-11-22T06:53:35.201Z,142.00
2018-11-22T06:54:35.342Z,151.00
2018-11-22T06:56:35.528Z,165.00
2018-11-22T06:57:35.659Z,172.00
2018-11-22T06:58:35.814Z,182.00
2018-11-22T06:59:35.963Z,190.00
2018-11-22T07:00:36.053Z,198.00
2018-11-22T07:01:36.165Z,208.00
2018-11-22T07:02:36.264Z,223.00
2018-11-22T07:03:36.411Z,238.00
2018-11-22T07:04:36.515Z,259.00
2018-11-22T07:05:36.604Z,278.00
2018-11-22T07:06:36.670Z,289.00
2018-11-22T07:07:36.819Z,295.00
2018-11-22T07:08:37.231Z,297.00
2018-11-22T07:09:37.302Z,305.00
2018-11-22T07:10:37.378Z,312.00
2018-11-22T07:11:37.453Z,317.00
2018-11-22T07:12:37.563Z,320.00
2018-11-22T07:13:37.789Z,321.00
2018-11-22T07:14:37.851Z,328.00
2018-11-22T07:15:38.301Z,343.00
2018-11-22T07:16:38.393Z,369.00
2018-11-22T07:17:38.465Z,387.00
2018-11-22T07:18:38.567Z,395.00
2018-11-22T07:19:38.839Z,399.00
2018-11-22T07:20:38.946Z,430.00
2018-11-22T07:21:39.027Z,465.00
2018-11-22T07:22:39.017Z,488.00
2018-11-22T07:23:39.315Z,504.00
2018-11-22T07:24:39.685Z,534.00
2018-11-22T07:25:39.989Z,570.00
2018-11-22T07:26:40.273Z,604.00
2018-11-22T07:27:40.770Z,650.00
2018-11-22T07:28:40.782Z,690.00
2018-11-22T07:29:41.067Z,702.00
2018-11-22T07:30:42.429Z,710.00
2018-11-22T07:31:41.594Z,744.00
2018-11-22T07:32:41.873Z,783.00
2018-11-22T07:33:42.280Z,830.00
2018-11-22T07:34:42.572Z,873.00
2018-11-22T07:35:43.111Z,925.00
2018-11-22T07:36:43.396Z,971.00
2018-11-22T07:37:43.846Z,992.00
2018-11-22T07:38:43.857Z,1004.00
2018-11-22T07:39:44.439Z,1022.00
2018-11-22T07:40:44.220Z,1039.00
2018-11-22T07:41:44.478Z,1062.00
2018-11-22T07:42:50.491Z,1099.00
2018-11-22T07:43:45.100Z,1151.00
2018-11-22T07:44:45.408Z,1205.00
2018-11-22T07:45:45.673Z,1257.00
2018-11-22T07:46:46.060Z,1292.00
2018-11-22T07:47:46.101Z,1316.00
2018-11-22T07:48:46.451Z,1336.00
2018-11-22T07:49:46.728Z,1361.00
2018-11-22T07:50:47.000Z,1401.00
2018-11-22T07:51:47.261Z,1461.00
2018-11-22T07:52:47.593Z,1498.00
2018-11-22T07:53:48.183Z,1523.00
2018-11-22T07:54:48.093Z,1507.00
2018-11-22T07:55:48.774Z,1494.00
2018-11-22T07:56:48.954Z,1488.00
2018-11-22T07:57:49.109Z,1484.00
2018-11-22T07:58:49.223Z,1500.00
2018-11-22T07:59:49.445Z,1551.00
2018-11-22T08:00:49.559Z,1621.00
2018-11-22T08:01:49.680Z,1697.00
2018-11-22T08:02:49.819Z,1759.00
2018-11-22T08:03:50.099Z,1798.00
2018-11-22T08:04:50.338Z,1830.00
2018-11-22T08:05:50.530Z,1864.00
2018-11-22T08:06:50.672Z,1897.00
2018-11-22T08:07:50.853Z,1922.00
2018-11-22T08:08:51.061Z,1955.00
2018-11-22T08:09:51.152Z,2000.00
2018-11-22T08:10:51.250Z,2031.00
2018-11-22T08:11:51.367Z,2015.00
2018-11-22T08:12:51.565Z,2002.00
2018-11-22T08:13:51.872Z,1964.00
2018-11-22T08:14:51.996Z,1892.00
2018-11-22T08:15:52.096Z,1840.00
2018-11-22T08:16:52.233Z,1796.00
2018-11-22T08:17:52.336Z,1762.00
2018-11-22T08:18:52.448Z,1752.00
2018-11-22T08:19:52.535Z,1758.00
2018-11-22T08:20:52.642Z,1783.00
2018-11-22T08:21:52.729Z,1822.00
2018-11-22T08:22:52.828Z,1863.00
2018-11-22T08:23:53.222Z,1900.00
2018-11-22T08:24:53.324Z,1958.00
2018-11-22T08:25:53.422Z,2026.00
2018-11-22T08:26:53.497Z,2119.00
2018-11-22T08:27:53.587Z,2258.00
2018-11-22T08:28:53.683Z,2388.00
2018-11-22T08:29:53.768Z,2486.00
2018-11-22T08:30:53.876Z,2574.00
2018-11-22T08:31:53.857Z,2668.00
2018-11-22T08:32:54.230Z,2707.00
2018-11-22T08:33:54.570Z,2643.00
2018-11-22T08:34:54.842Z,2542.00
2018-11-22T08:35:55.199Z,2557.00
2018-11-22T08:36:55.455Z,2680.00
2018-11-22T08:37:55.739Z,2860.00
2018-11-22T08:38:56.027Z,3030.00
2018-11-22T08:40:56.649Z,3287.00
2018-11-22T08:41:56.960Z,3419.00
2018-11-22T08:42:57.244Z,3468.00
2018-11-22T08:43:57.650Z,3492.00
2018-11-22T08:44:57.924Z,3504.00
2018-11-22T08:45:58.262Z,3505.00
2018-11-22T08:46:58.523Z,3492.00
2018-11-22T08:47:58.812Z,3487.00
2018-11-22T08:48:59.118Z,3503.00
2018-11-22T08:49:59.399Z,3506.00
2018-11-22T08:50:59.656Z,3519.00
2018-11-22T08:51:59.927Z,3545.00
2018-11-22T08:53:00.233Z,3559.00
2018-11-22T08:54:00.318Z,3589.00
2018-11-22T08:55:00.589Z,3642.00
2018-11-22T08:56:00.874Z,3656.00
2018-11-22T08:57:01.262Z,3622.00
2018-11-22T08:58:01.573Z,3626.00
2018-11-22T08:59:01.840Z,3672.00
2018-11-22T09:00:02.165Z,3729.00
2018-11-22T09:01:02.363Z,3810.00
2018-11-22T09:02:02.406Z,3859.00
2018-11-22T09:03:02.766Z,3876.00
2018-11-22T09:04:02.642Z,3897.00
2018-11-22T09:05:02.720Z,3960.00
2018-11-22T09:06:03.111Z,4056.00
2018-11-22T09:07:03.232Z,4186.00
2018-11-22T09:08:03.528Z,4334.00
2018-11-22T09:09:03.695Z,4447.00
2018-11-22T09:10:04.127Z,4474.00
2018-11-22T09:11:04.439Z,4447.00
2018-11-22T09:12:04.567Z,4428.00
2018-11-22T09:13:04.732Z,4436.00
2018-11-22T09:14:04.885Z,4454.00
2018-11-22T09:15:05.090Z,4495.00
2018-11-22T09:16:05.100Z,4557.00
2018-11-22T09:17:05.226Z,4613.00
2018-11-22T09:18:05.317Z,4529.00
2018-11-22T09:19:05.480Z,4359.00
2018-11-22T09:20:05.637Z,4422.00
2018-11-22T09:21:05.876Z,4580.00
2018-11-22T09:22:06.010Z,4731.00
2018-11-22T09:23:06.122Z,4871.00
2018-11-22T09:24:08.666Z,4955.00
2018-11-22T09:25:06.182Z,5074.00
2018-11-22T09:26:06.804Z,5195.00
2018-11-22T09:27:07.001Z,5271.00
2018-11-22T09:28:07.123Z,5317.00
2018-11-22T09:29:07.215Z,5280.00
2018-11-22T09:30:07.294Z,5240.00
2018-11-22T09:31:07.655Z,5293.00
2018-11-22T09:32:07.660Z,5463.00
2018-11-22T09:33:07.740Z,5692.00
2018-11-22T09:34:07.840Z,5816.00
2018-11-22T09:35:07.963Z,5728.00
2018-11-22T09:36:08.063Z,5635.00
2018-11-22T09:37:08.102Z,5616.00
2018-11-22T09:38:08.006Z,5585.00
2018-11-22T09:39:08.665Z,5551.00
2018-11-22T09:40:08.600Z,5641.00
2018-11-22T09:41:09.149Z,5829.00
2018-11-22T09:42:09.390Z,5928.00
2018-11-22T09:43:09.294Z,5808.00
2018-11-22T09:44:09.771Z,5580.00
2018-11-22T09:45:10.233Z,5418.00
2018-11-22T09:46:10.219Z,5436.00
2018-11-22T09:47:10.574Z,5527.00
2018-11-22T09:48:10.889Z,5504.00
2018-11-22T09:49:11.165Z,5300.00
2018-11-22T09:50:11.620Z,5059.00
2018-11-22T09:51:11.789Z,4719.00
2018-11-22T09:52:11.990Z,4541.00
2018-11-22T09:53:12.478Z,4299.00
2018-11-22T09:54:12.749Z,4049.00
2018-11-22T09:55:13.355Z,3831.00
2018-11-22T09:56:13.586Z,3787.00
2018-11-22T09:57:13.870Z,3859.00
2018-11-22T09:58:14.153Z,3854.00
2018-11-22T09:59:14.604Z,3825.00
2018-11-22T10:00:15.095Z,3781.00
2018-11-22T10:01:14.875Z,3794.00
2018-11-22T10:02:15.193Z,3821.00
2018-11-22T10:03:15.604Z,3905.00
2018-11-22T10:04:15.809Z,3965.00
2018-11-22T10:05:16.644Z,3947.00
2018-11-22T10:06:16.322Z,3910.00
2018-11-22T10:07:16.600Z,3946.00
2018-11-22T10:08:16.876Z,4031.00
2018-11-22T10:09:17.301Z,4080.00
2018-11-22T10:10:17.893Z,4093.00
2018-11-22T10:11:17.585Z,4124.00
2018-11-22T10:12:17.918Z,4156.00
2018-11-22T10:13:18.442Z,4157.00
2018-11-22T10:14:18.500Z,4156.00
2018-11-22T10:15:18.603Z,4243.00
2018-11-22T10:16:18.741Z,4065.00
2018-11-22T10:17:18.887Z,3940.00
2018-11-22T10:18:18.970Z,3958.00
2018-11-22T10:19:19.068Z,4070.00
2018-11-22T10:20:19.197Z,4160.00
2018-11-22T10:21:19.309Z,4257.00
2018-11-22T10:22:19.455Z,4232.00
2018-11-22T10:23:19.580Z,3955.00
2018-11-22T10:24:19.751Z,3542.00
2018-11-22T10:25:19.887Z,3272.00
2018-11-22T10:26:20.034Z,3573.00
2018-11-22T10:27:20.211Z,3861.00
2018-11-22T10:28:20.326Z,4008.00
2018-11-22T10:29:20.474Z,4174.00
2018-11-22T10:30:20.658Z,4466.00
2018-11-22T10:31:20.770Z,4511.00
2018-11-22T10:32:20.949Z,4612.00
2018-11-22T10:33:21.052Z,4834.00
2018-11-22T10:34:21.136Z,5442.00
2018-11-22T10:35:21.244Z,5812.00
2018-11-22T10:36:21.682Z,6047.00
2018-11-22T10:37:21.842Z,6159.00
2018-11-22T10:38:22.117Z,6268.00
2018-11-22T10:39:22.172Z,6364.00
2018-11-22T10:40:22.286Z,6476.00
2018-11-22T10:41:22.586Z,6639.00
2018-11-22T10:42:22.700Z,6766.00
2018-11-22T10:43:22.756Z,6768.00
2018-11-22T10:44:22.864Z,6689.00
2018-11-22T10:45:22.996Z,6645.00
2018-11-22T10:46:23.089Z,6677.00
2018-11-22T10:47:23.204Z,6695.00
2018-11-22T10:48:23.299Z,6584.00
2018-11-22T10:49:23.387Z,6442.00
2018-11-22T10:50:23.465Z,6397.00
2018-11-22T10:51:23.635Z,6481.00
2018-11-22T10:52:23.714Z,6485.00
2018-11-22T10:53:23.799Z,6410.00
2018-11-22T10:54:23.776Z,6396.00
2018-11-22T10:55:24.129Z,6411.00
2018-11-22T10:56:24.230Z,6395.00
2018-11-22T10:57:24.512Z,6336.00
2018-11-22T10:58:24.932Z,6302.00
2018-11-22T10:59:25.458Z,6243.00
2018-11-22T11:00:25.408Z,6184.00
2018-11-22T11:01:25.360Z,6220.00
2018-11-22T11:02:25.793Z,6191.00
2018-11-22T11:03:25.977Z,6175.00
2018-11-22T11:04:26.389Z,6200.00
2018-11-22T11:05:26.789Z,6232.00
2018-11-22T11:06:27.286Z,6307.00
2018-11-22T11:07:27.699Z,6297.00
2018-11-22T11:08:28.142Z,6232.00
2018-11-22T11:09:28.320Z,6158.00
2018-11-22T11:10:28.607Z,6221.00
2018-11-22T11:11:28.989Z,6200.00
2018-11-22T11:12:30.272Z,6176.00
2018-11-22T11:13:29.549Z,6183.00
2018-11-22T11:14:29.851Z,6172.00
2018-11-22T11:15:30.120Z,6182.00
2018-11-22T11:16:30.461Z,6195.00
2018-11-22T11:17:30.742Z,6165.00
2018-11-22T11:18:31.005Z,6141.00
2018-11-22T11:19:31.276Z,6110.00
2018-11-22T11:20:31.540Z,6080.00
2018-11-22T11:21:31.841Z,5924.00
2018-11-22T11:22:32.136Z,5726.00
2018-11-22T11:23:32.433Z,5562.00
2018-11-22T11:24:33.195Z,5187.00
2018-11-22T11:25:33.036Z,4772.00
2018-11-22T11:26:33.630Z,4658.00
2018-11-22T11:27:33.735Z,4758.00
2018-11-22T11:28:33.909Z,4817.00
2018-11-22T11:29:34.030Z,4839.00
2018-11-22T11:30:34.152Z,4841.00
2018-11-22T11:31:34.289Z,4847.00
2018-11-22T11:32:34.416Z,4858.00
2018-11-22T11:33:34.560Z,5020.00
2018-11-22T11:34:34.845Z,5238.00
2018-11-22T11:35:34.992Z,5470.00
2018-11-22T11:36:35.127Z,5714.00
2018-11-22T11:37:35.256Z,5934.00
2018-11-22T11:38:35.437Z,6141.00
2018-11-22T11:39:35.669Z,6316.00
2018-11-22T11:40:35.836Z,6491.00
2018-11-22T11:41:36.297Z,6671.00
2018-11-22T11:42:36.387Z,6920.00
2018-11-22T11:43:36.479Z,7075.00
2018-11-22T11:44:36.594Z,7152.00
2018-11-22T11:45:36.687Z,7201.00
2018-11-22T11:46:36.964Z,7302.00
2018-11-22T11:47:37.121Z,7394.00
2018-11-22T11:48:37.259Z,7413.00
2018-11-22T11:49:37.400Z,7327.00
2018-11-22T11:50:37.486Z,7240.00
2018-11-22T11:51:37.563Z,7179.00
2018-11-22T11:52:37.693Z,7217.00
2018-11-22T11:53:41.533Z,7265.00
2018-11-22T11:54:38.061Z,7269.00
2018-11-22T11:55:38.136Z,7227.00
2018-11-22T11:56:38.205Z,7183.00
2018-11-22T11:57:38.333Z,7143.00
2018-11-22T11:58:38.461Z,7069.00
2018-11-22T11:59:38.610Z,7072.00
2018-11-22T12:00:38.734Z,7194.00
2018-11-22T12:01:38.840Z,7386.00
2018-11-22T12:02:38.912Z,7387.00
2018-11-22T12:03:39.176Z,7335.00
2018-11-22T12:04:39.449Z,7222.00
2018-11-22T12:05:39.727Z,7066.00
2018-11-22T12:06:39.871Z,6996.00
2018-11-22T12:07:40.163Z,6865.00
2018-11-22T12:08:40.446Z,6672.00
2018-11-22T12:09:41.014Z,6643.00
2018-11-22T12:10:40.780Z,6709.00
2018-11-22T12:11:41.044Z,6743.00
2018-11-22T12:12:41.365Z,6946.00
2018-11-22T12:13:41.629Z,7476.00
2018-11-22T12:14:41.950Z,8052.00
2018-11-22T12:15:42.414Z,8121.00
2018-11-22T12:16:42.719Z,7904.00
2018-11-22T12:17:43.189Z,8035.00
2018-11-22T12:18:43.481Z,8330.00
2018-11-22T12:19:43.914Z,8486.00
2018-11-22T12:20:44.391Z,8417.00
2018-11-22T12:21:44.679Z,8105.00
2018-11-22T12:22:44.982Z,7857.00
2018-11-22T12:23:45.088Z,7637.00
2018-11-22T12:24:45.355Z,7504.00
2018-11-22T12:25:45.627Z,7481.00
2018-11-22T12:26:45.907Z,7508.00
2018-11-22T12:27:46.281Z,7606.00
2018-11-22T12:28:46.462Z,7425.00
2018-11-22T12:29:46.753Z,6737.00
2018-11-22T12:30:47.021Z,6548.00
2018-11-22T12:31:47.547Z,6391.00
2018-11-22T12:32:47.315Z,6153.00
2018-11-22T12:33:47.762Z,6199.00
2018-11-22T12:34:48.483Z,6752.00
2018-11-22T12:35:48.905Z,7445.00
2018-11-22T12:36:49.382Z,7826.00
2018-11-22T12:37:49.684Z,7819.00
2018-11-22T12:38:50.011Z,7127.00
2018-11-22T12:39:50.216Z,6515.00
2018-11-22T12:40:50.362Z,6154.00
2018-11-22T12:41:50.574Z,6369.00
2018-11-22T12:42:50.736Z,7150.00
2018-11-22T12:43:50.895Z,7679.00
2018-11-22T12:44:50.976Z,7952.00
2018-11-22T12:45:51.472Z,8170.00
2018-11-22T12:46:51.551Z,8375.00
2018-11-22T12:47:51.666Z,8577.00
2018-11-22T12:48:51.776Z,8555.00
2018-11-22T12:49:51.860Z,8458.00
2018-11-22T12:50:51.941Z,8426.00
2018-11-22T12:51:52.126Z,8328.00
2018-11-22T12:52:52.346Z,8119.00
2018-11-22T12:53:52.505Z,7990.00